NCAR-RAP Real-Time Weather Data

Output produced by METARs form (16 August 2018  19:23 UTC)
found at http://weather.rap.ucar.edu/surface/
 
RJFF 161900Z AUTO 02007KT 9999 FEW031 BKN050 BKN060 26/22 Q1009 NOSIG RMK A2981
RJFF 161830Z AUTO 02007KT 9999 FEW029 BKN044 27/22 Q1009 NOSIG RMK A2982
RJFF 161800Z AUTO 02005KT 9999 FEW035 SCT036 BKN042 27/22 Q1009 NOSIG RMK A2981
RJFF 161730Z AUTO 05005KT 9999 SCT036 BKN040 27/22 Q1009 NOSIG RMK A2981
RJFF 161700Z AUTO 05004KT 020V080 9999 FEW027 SCT034 OVC080 27/22 Q1009 NOSIG RMK A2981
RJFF 161630Z AUTO 04007KT 360V060 9999 FEW023 BKN026 BKN031 27/22 Q1009 NOSIG RMK A2981
RJFF 161600Z AUTO 04008KT 010V070 9999 FEW022 SCT026 BKN034 27/22 Q1009 NOSIG RMK A2982
RJFF 161530Z AUTO 04007KT 010V080 9999 SCT022 SCT031 BKN033 //////TCU 28/22 Q1009 NOSIG
RJFF 161500Z AUTO 02008KT 9999 FEW021 SCT035 BKN042 28/23 Q1009 NOSIG RMK A2981
RJFF 161430Z AUTO 03005KT 9999 SCT019 SCT025 BKN031 //////TCU 28/24 Q1009 NOSIG
RJFF 161400Z AUTO 05008KT 9999 -RA BKN030 OVC100 28/24 Q1009 NOSIG RMK A2982
RJFF 161330Z 05005KT 010V080 9999 FEW040 BKN/// 28/23 Q1009 NOSIG
RJFF 161300Z 05008KT 020V080 9999 FEW040 SCT100 BKN/// 28/23 Q1009 NOSIG RMK 1CU040 3AC100 A2982
RJFF 161230Z 05008KT 020V120 9999 FEW040 BKN100 BKN/// 29/23 Q1009 NOSIG
RJFF 161200Z 05007KT 020V110 9999 FEW040 BKN100 BKN/// 29/24 Q1009 NOSIG
RJFF 161130Z 07004KT 330V150 9999 FEW040 BKN100 BKN/// 29/23 Q1009 BECMG 05008KT
RJFF 161100Z 05009KT 030V100 9999 -RA FEW020 SCT050 BKN/// 29/24 Q1008 NOSIG
RJFF 161030Z 04010KT 010V090 9999 FEW020 SCT050 BKN/// 29/23 Q1008 BECMG 12004KT
RJFF 161000Z 03006KT 320V100 9999 FEW020 BKN150 BKN/// 29/24 Q1008 BECMG 12004KT
RJFF 160930Z 12007KT 080V150 9999 FEW020 SCT140 BKN/// 29/23 Q1008 NOSIG
RJFF 160900Z 12006KT 080V150 9999 FEW020 SCT110 BKN140 29/24 Q1007 NOSIG RMK 1CU020 3AC110 5AC140 A2976
RJFF 160830Z 07005KT 010V120 9999 -RA FEW015 SCT070 BKN130 30/25 Q1007 BECMG 05008KT
RJFF 160800Z 06007KT 010V110 9999 -SHRA FEW015 SCT045 BKN060 30/26 Q1007 BECMG 05008KT
RJFF 160730Z 06007KT 040V120 9999 -SHRA FEW007 SCT045 BKN060 31/26 Q1007 TEMPO TL0830 3000 TSRA BR BECMG TL0900 04008KT
RJFF 160700Z 08005KT 360V120 9999 -SHRA FEW005 SCT090 BKN140 29/25 Q1007 BECMG TL0800 03008KT TEMPO TL0830 3000 TSRA BR RMK 1ST005 4AC090 5AC140 A2975
RJFF 160638Z 08009KT 050V120 9999 R34/0900VP2000U TSRA FEW005 FEW040CB SCT045 BKN090 29/24 Q1007 RMK 1ST005 1CB040 3CU045 5AC090 A2975 FBL TS 10KM S STNR
RJFF 160636Z 08009KT 9999 R34/0800VP2000U -TSRA FEW005 FEW040CB SCT045 BKN090 30/25 Q1007 RMK 1ST005 1CB040 3CU045 5AC090 A2975 FBL TS 10KM S STNR
RJFF 160630Z VRB08KT 9999 R34/0800VP2000D -SHRA FEW015 SCT040 FEW040CB BKN070 30/24 Q1007 TEMPO TL0730 3000 TSRA BR BECMG 03008KT RMK 1CU015 3CU040 1CB040 5AC070 A2975 CB 10KM S STNR
RJFF 160616Z 04011KT 9999 TSRA FEW020 SCT040 FEW040CB BKN045 30/24 Q1007 RMK 1CU020 3CU040 1CB040 5CU045 A2974 FBL TS 5KM S STNR
RJFF 160600Z 36014KT 9999 SHRA FEW010 SCT030 FEW040CB BKN045 30/23 Q1007 TEMPO TL0700 3000 TSRA BR
RJFF 160530Z 34016KT 9999 TSRA FEW025 SCT040 FEW040CB BKN045 31/23 Q1007 TEMPO 35016G28KT 3000 TSRA BR
RJFF 160524Z 01011KT 9999 TS VCSH FEW025 FEW040CB SCT045 BKN140 33/23 Q1007 RMK 1CU025 1CB040 3CU045 5AC140 A2974 FBL TS 10KM N STNR
RJFF 160521Z VRB05KT 9999 TS VCSH FEW025 FEW040CB SCT045 BKN140 33/23 Q1007 RMK 1CU025 1CB040 3CU045 5AC140 A2974 FBL TS 10KM N STNR
RJFF 160500Z 09006KT 050V150 9999 FEW030 SCT045 BKN140 34/23 Q1007 BECMG TL0530 04008KT
RJFF 160444Z 06010KT 9999 FEW030 SCT045 BKN140 34/22 Q1007 RMK 1CU030 3CU045 5AC140 A2974
RJFF 160430Z 13005KT 080V180 9999 FEW030 SCT045 BKN150 33/22 Q1007 BECMG TL0530 04008KT
RJFF 160400Z VRB04KT 9999 FEW025 BKN150 BKN/// 33/23 Q1007 BECMG TL0500 04008KT
RJFF 160330Z VRB03KT 9999 FEW025 SCT045 BKN140 33/22 Q1007 BECMG TL0430 04008KT
RJFF 160300Z VRB03KT 9999 FEW025 SCT130 BKN150 33/22 Q1008 BECMG TL0430 04008KT
RJFF 160230Z VRB04KT 9999 FEW025 SCT130 BKN150 32/22 Q1008 BECMG TL0330 04008KT
RJFF 160200Z 08003KT 010V170 9999 FEW025 SCT130 BKN150 32/23 Q1008 BECMG TL0330 04008KT
RJFF 160130Z 09006KT 060V140 9999 FEW025 SCT130 BKN/// 32/22 Q1008 BECMG TL0230 04007KT
RJFF 160100Z 06007KT 010V110 9999 FEW030 SCT150 BKN/// 32/22 Q1008 BECMG TL0200 04005KT RMK 1CU030 3AC150 A2977
RJFF 160030Z 03004KT 350V130 9999 FEW030 BKN150 BKN/// 31/22 Q1008 NOSIG
RJFF 160000Z 07003KT 330V150 9999 FEW030 BKN150 31/23 Q1008 NOSIG RMK 1CU030 7AC150 A2977
RJFF 152330Z VRB03KT 9999 FEW030 BKN150 BKN/// 30/23 Q1007 BECMG 02005KT RMK 1CU030 5AC150 A2976
RJFF 152300Z VRB02KT 9999 FEW030 SCT150 BKN/// 30/23 Q1007 BECMG 14005KT RMK 1CU030 3AC150 A2975
RJFF 152230Z VRB03KT 9999 FEW030 SCT150 BKN/// 29/23 Q1007 BECMG 14005KT RMK 1CU030 3AC150 A2974
RJFF 152200Z 15003KT 100V180 9999 FEW030 BKN150 BKN/// 28/24 Q1007 NOSIG
RJFF 152130Z 16004KT 9999 FEW025 SCT100 BKN140 27/24 Q1007 NOSIG RMK 1CU025 3AC100 5AC140 A2974
RJFF 152100Z 14004KT 9999 FEW025 BKN150 27/23 Q1006 NOSIG RMK 1CU025 6AC150 A2973
RJFF 152030Z AUTO VRB02KT 9999 NSC 27/23 Q1006 BECMG 14005KT
RJFF 152000Z AUTO 16002KT 9999 NSC 27/23 Q1006 NOSIG RMK A2973
RJFF 151930Z AUTO 09003KT 9999 NSC 28/23 Q1006 NOSIG RMK A2973
RJFF 151900Z AUTO 09005KT 9999 NSC 27/23 Q1006 NOSIG RMK A2972
RJFF 151830Z AUTO 16005KT 9999 NSC 26/23 Q1006 NOSIG RMK A2972
RJFF 151800Z AUTO 14006KT 9999 NSC 27/23 Q1006 NOSIG RMK A2972
RJFF 151730Z AUTO 14007KT 9999 NSC 27/23 Q1006 NOSIG RMK A2973
RJFF 151700Z AUTO 16011KT 9999 NCD 27/23 Q1006 NOSIG RMK A2972
RJFF 151630Z AUTO 15011KT 9999 NCD 28/24 Q1006 NOSIG RMK A2973
RJFF 151600Z AUTO 14012KT 9999 NCD 28/24 Q1006 NOSIG RMK A2973
RJFF 151530Z AUTO 14010KT 9999 NCD 28/24 Q1006 NOSIG RMK A2973
RJFF 151500Z AUTO 15006KT 9999 NCD 28/24 Q1006 NOSIG RMK A2973
RJFF 151430Z AUTO 09004KT 060V130 9999 SCT170 //////TCU 28/24 Q1007 NOSIG
RJFF 151400Z AUTO 07004KT 030V090 9999 SCT170 BKN230 //////TCU 29/25 Q1007 NOSIG RMK A2976 TCU 15KM NE MOV N
RJFF 151330Z 14007KT 9999 FEW020 SCT060 BKN120 29/25 Q1007 NOSIG RMK 1CU020 3SC060 5AC120 A2976
RJFF 151300Z 14006KT 100V170 9999 FEW025 SCT100 BKN150 29/25 Q1007 NOSIG RMK 1CU025 3AC100 5AC150 A2976
RJFF 151230Z 14007KT 9999 FEW025 SCT100 BKN150 29/25 Q1007 NOSIG RMK 1CU025 3AC100 5AC150 A2976
RJFF 151200Z 14006KT 9999 FEW025 BKN150 29/25 Q1007 NOSIG RMK 1CU025 5AC150 A2976
RJFF 151130Z 13006KT 100V160 9999 FEW025 BKN150 30/24 Q1007 NOSIG RMK 1CU025 6AC150 A2975
RJFF 151100Z 13006KT 9999 FEW025 BKN150 30/24 Q1007 NOSIG RMK 1CU025 6AC150 A2974
RJFF 151030Z 14007KT 9999 FEW025 SCT050 BKN150 30/25 Q1006 NOSIG RMK 1CU025 3SC050 6AC150 A2973
RJFF 151000Z 16007KT 140V230 9999 -SHRA FEW025 SCT040 BKN070 30/24 Q1006 NOSIG RMK 1CU025 3CU040 5AC070 A2973
RJFF 150930Z 17009KT 150V220 9999 FEW025 SCT080 BKN100 30/24 Q1006 NOSIG RMK 1CU025 3AC080 6AC100 A2973
RJFF 150900Z 16007KT 140V200 9999 FEW025 SCT080 BKN100 30/24 Q1006 NOSIG RMK 1CU025 3AC080 5AC100 A2972
RJFF 150830Z 18010KT 9999 FEW025 SCT070 BKN120 31/24 Q1006 NOSIG RMK 1CU025 3AC070 6AC120 A2972
RJFF 150800Z 18010KT 9999 FEW025 SCT050 BKN120 31/23 Q1006 NOSIG RMK 1CU025 3SC050 5AC120 A2972
RJFF 150730Z 18011KT 9999 FEW025 SCT070 BKN120 31/24 Q1006 NOSIG RMK 1CU025 3AC070 5AC120 A2972
RJFF 150700Z 19010KT 160V220 9999 FEW025 FEW030CB SCT060 BKN070 31/23 Q1006 NOSIG RMK 1CU025 1CB030 3SC060 6AC070 A2972 CB E-SE
RJFF 150630Z 19010KT 9999 FEW025 SCT050 BKN060 32/24 Q1006 NOSIG RMK 1CU025 3SC050 6SC060 A2972
RJFF 150600Z 20004KT 130V250 9999 FEW025 SCT045 BKN060 32/24 Q1006 NOSIG RMK 1CU025 3CU045 5SC060 A2972
RJFF 150530Z 21004KT 140V250 9999 -SHRA FEW025 SCT040 BKN050 31/24 Q1006 NOSIG RMK 1CU025 3CU040 5SC050 A2972
RJFF 150500Z 17008KT 9999 FEW025 SCT040 BKN050 31/24 Q1007 NOSIG RMK 1CU025 3CU040 6SC050 A2974
RJFF 150430Z 15010KT 9999 FEW025 SCT045 BKN150 31/24 Q1007 NOSIG RMK 1CU025 4CU045 6AC150 A2974
RJFF 150400Z 16009KT 9999 FEW025 SCT040 BKN150 30/24 Q1007 NOSIG RMK 1CU025 3CU040 6AC150 A2974
RJFF 150330Z 15009KT 9999 FEW010 SCT040 BKN140 30/24 Q1007 NOSIG RMK 1CU010 3CU040 5AC140 A2974
RJFF 150300Z 14010KT 9999 FEW008 SCT030 BKN070 30/24 Q1007 NOSIG RMK 1ST008 3CU030 5AC070 A2975
RJFF 150230Z 16013KT 120V190 9999 FEW006 SCT020 BKN070 29/24 Q1007 NOSIG RMK 1ST006 3CU020 5AC070 A2975
RJFF 150200Z 16012KT 9999 FEW006 SCT020 BKN060 28/24 Q1007 TEMPO TL0300 4000 -SHRA BR
RJFF 150130Z 16017KT 9999 -SHRA FEW006 SCT020 BKN040 27/24 Q1007 TEMPO TL0300 4000 -SHRA BR
RJFF 150100Z 15014KT 9999 -SHRA FEW006 SCT020 BKN040 27/24 Q1007 TEMPO 16020G30KT 1500 +SHRA BR FEW003 SCT005 BKN008
RJFF 150046Z 15016KT 9999 -SHRA FEW006 SCT020 BKN025 26/24 Q1007 RMK 1ST006 3CU020 5CU025 A2974
RJFF 150030Z 14017KT 9999 SHRA FEW006 SCT020 BKN025 26/24 Q1007 TEMPO 16020G30KT 1500 +SHRA BR FEW003 SCT005 BKN008 RMK 1ST006 3CU020 5CU025 A2974
RJFF 150018Z 15014KT 4000 R16/2000U SHRA BR FEW006 SCT020 BKN025 26/24 Q1007 RMK 1ST006 3CU020 5CU025 A2974
RJFF 150009Z 15016KT 2500 R16/1700N SHRA BR FEW006 SCT020 BKN025 26/24 Q1006 RMK 1ST006 3CU020 5CU025 A2973
RJFF 150000Z 15019KT 2500 R16/2000N +SHRA BR FEW006 SCT015 BKN025 26/24 Q1006 TEMPO 16020G30KT 1500 +SHRA BR FEW003 SCT005 BKN008
RJFF 142330Z 14024KT 9999 -SHRA FEW006 SCT020 BKN025 26/23 Q1006 TEMPO 16020G30KT 1500 +SHRA BR FEW003 SCT005 BKN008 RMK 1ST006 3CU020 5CU025 A2971
RJFF 142301Z 14016G26KT 7000 -SHRA FEW008 SCT010 BKN020 26/24 Q1005 RMK 1ST008 3CU010 5CU020 A2970
RJFF 142300Z 14015KT 7000 -SHRA FEW008 SCT010 BKN020 26/24 Q1005 TEMPO FM0000 16020G30KT 1500 +SHRA BR FEW003 SCT005 BKN008
RJFF 142230Z 16009KT 4500 -SHRA BR FEW008 SCT015 BKN025 27/24 Q1005 TEMPO FM0000 18020G30KT 3000 SHRA BR RMK 1ST008 3CU015 6CU025 A2970
RJFF 142224Z 16010KT 4500 -SHRA BR FEW010 SCT015 BKN025 27/24 Q1005 RMK 1CU010 3CU015 6CU025 A2969
RJFF 142200Z 10004KT 060V150 9999 -SHRA FEW010 SCT015 BKN025 28/23 Q1005 TEMPO 4000 -SHRA BR BECMG 16017KT
RJFF 142130Z 05010KT 9999 -SHRA FEW010 SCT015 BKN020 28/23 Q1005 TEMPO 4000 -SHRA BR
RJFF 142100Z 05008KT 330V090 9999 -SHRA FEW015 BKN020 BKN030 29/23 Q1005 TEMPO 4000 -SHRA BR RMK 1CU015 5CU020 7CU030 A2968
RJFF 142030Z AUTO 03005KT 360V070 9999 BKN029 BKN033 BKN035 29/22 Q1005 TEMPO FM2100 4000 -SHRA BR
RJFF 142000Z AUTO 03010KT 9999 BKN033 OVC042 30/22 Q1005 TEMPO FM2100 4000 -SHRA BR RMK A2969
RJFF 141930Z AUTO 36005KT 320V050 9999 FEW036 SCT042 BKN045 30/22 Q1005 TEMPO FM2100 4000 -SHRA BR
RJFF 141900Z AUTO 01007KT 9999 FEW037 SCT050 BKN080 29/22 Q1005 NOSIG RMK A2970
RJFF 141830Z AUTO 36006KT 9999 NSC 29/22 Q1006 NOSIG RMK A2971
RJFF 141800Z AUTO 04004KT 9999 FEW037 29/22 Q1006 NOSIG RMK A2972
RJFF 141730Z AUTO 01006KT 9999 NCD 30/22 Q1006 NOSIG RMK A2973
RJFF 141700Z AUTO 03004KT 360V060 9999 NSC 30/21 Q1007 NOSIG RMK A2975
RJFF 141630Z AUTO 02005KT 340V070 9999 NCD 30/21 Q1007 NOSIG RMK A2975
RJFF 141600Z AUTO 04005KT 350V080 9999 NCD 30/21 Q1007 NOSIG RMK A2975
RJFF 141530Z AUTO 06006KT 020V100 9999 NCD 30/21 Q1007 BECMG 04006KT RMK A2976
RJFF 141500Z AUTO 06005KT 9999 NCD 31/21 Q1008 BECMG 04006KT RMK A2977
RJFF 141430Z AUTO 06006KT 9999 NCD 31/21 Q1008 BECMG 04006KT
RJFF 141400Z AUTO 06003KT 030V090 9999 NCD 31/21 Q1008 BECMG 04005KT RMK A2978
RJFF 141330Z 10004KT 060V120 9999 FEW030 32/21 Q1008 NOSIG RMK 1CU030 A2979
RJFF 141300Z 09005KT 070V140 9999 FEW030 32/21 Q1008 NOSIG RMK 1CU030 A2979
RJFF 141230Z 10006KT 060V150 9999 FEW030 32/21 Q1008 NOSIG RMK 1CU030 A2979
RJFF 141200Z 10005KT 060V140 9999 FEW035 SCT/// 32/22 Q1008 NOSIG RMK 1CU035 A2979
RJFF 141130Z 11008KT 9999 FEW035 SCT/// 32/22 Q1008 NOSIG
RJFF 141100Z 10008KT 070V150 9999 FEW035 SCT/// 32/22 Q1008 NOSIG
RJFF 141030Z 09009KT 060V140 9999 FEW035 BKN/// 33/22 Q1007 NOSIG
RJFF 141000Z 11008KT 060V140 9999 FEW035 BKN/// 33/22 Q1007 NOSIG RMK 1CU035 A2975
RJFF 140930Z 09008KT 060V120 9999 FEW035 BKN/// 34/23 Q1007 NOSIG
RJFF 140900Z 08010KT 040V120 9999 FEW035 BKN/// 35/23 Q1006 NOSIG RMK 1CU035 A2973
RJFF 140830Z 07009KT 030V110 9999 FEW035 BKN/// 35/23 Q1006 NOSIG
RJFF 140800Z 06011KT 040V110 9999 FEW035 BKN/// 36/23 Q1007 NOSIG
RJFF 140730Z 07009KT 040V110 9999 FEW035 BKN/// 35/23 Q1007 NOSIG